Time;durP1;ratioP1;P1;durP2;ratioP2;P2;SDS_P1;SDS_P2;PMS_P1;PMS_P2;Temp;Humidity;BMP_temperature;BMP_pressure;BME280_temperature;BME280_humidity;BME280_pressure;Samples;Min_cycle;Max_cycle;Signal;HPM_P1;HPM_P2
2022/12/26 00:01:08;;;;;;;;;;;16.60;99.90;;;;;;5043939;28;19958;-76
2022/12/26 00:03:33;;;;;;;;;;;16.60;99.90;;;;;;5042245;28;19943;-76
2022/12/26 00:05:59;;;;;;;;;;;16.60;99.90;;;;;;5044363;28;19922;-75
2022/12/26 00:08:24;;;;;;;;;;;16.90;99.90;;;;;;5043010;28;20334;-77
2022/12/26 00:10:49;;;;;;;;;;;16.80;99.90;;;;;;5044316;28;19959;-73
2022/12/26 00:13:15;;;;;;;;;;;16.80;99.90;;;;;;5042057;28;19963;-75
2022/12/26 00:15:41;;;;;;;;;;;17.00;99.90;;;;;;5044589;28;20469;-75
2022/12/26 00:18:06;;;;;;;;;;;17.00;99.90;;;;;;5042508;28;19963;-77
2022/12/26 00:20:32;;;;;;;;;;;17.00;99.90;;;;;;5044444;28;19917;-75
2022/12/26 00:22:58;;;;;;;;;;;17.00;99.90;;;;;;5041873;28;19935;-76
2022/12/26 00:25:24;;;;;;;;;;;17.20;99.90;;;;;;5044357;28;20011;-77
2022/12/26 00:27:49;;;;;;;;;;;17.10;99.90;;;;;;5043184;28;20016;-76
2022/12/26 00:30:15;;;;;;;;;;;17.20;99.90;;;;;;5043265;28;20008;-76
2022/12/26 00:32:40;;;;;;;;;;;17.20;99.90;;;;;;5033025;28;19917;-75
2022/12/26 00:35:06;;;;;;;;;;;17.20;99.90;;;;;;5036897;28;19908;-77
2022/12/26 00:37:31;;;;;;;;;;;17.20;99.90;;;;;;5040524;28;19932;-78
2022/12/26 00:39:57;;;;;;;;;;;17.20;99.90;;;;;;5046581;28;19913;-77
2022/12/26 00:42:22;;;;;;;;;;;17.40;99.90;;;;;;5038615;28;19931;-77
2022/12/26 00:44:48;;;;;;;;;;;17.30;99.90;;;;;;5044393;28;20015;-77
2022/12/26 00:47:13;;;;;;;;;;;17.50;99.90;;;;;;5038454;28;19920;-78
2022/12/26 00:49:39;;;;;;;;;;;17.30;99.90;;;;;;5044961;28;19920;-77
2022/12/26 00:52:04;;;;;;;;;;;17.20;99.90;;;;;;5044119;28;19992;-74
2022/12/26 00:54:30;;;;;;;;;;;17.50;99.90;;;;;;5035713;28;19952;-76
2022/12/26 00:56:55;;;;;;;;;;;17.50;99.90;;;;;;5042766;28;19916;-77
2022/12/26 00:59:20;;;;;;;;;;;17.40;99.90;;;;;;5040861;28;19924;-77
2022/12/26 01:01:46;;;;;;;;;;;17.60;99.90;;;;;;5042565;28;19909;-77
2022/12/26 01:04:11;;;;;;;;;;;17.40;99.90;;;;;;5031250;28;19924;-76
2022/12/26 01:06:37;;;;;;;;;;;17.50;99.90;;;;;;5038319;28;20500;-78
2022/12/26 01:09:02;;;;;;;;;;;17.50;99.90;;;;;;5045563;28;21424;-77
2022/12/26 01:11:40;;;;;;;;;;;17.30;99.90;;;;;;5044747;28;19916;-76
2022/12/26 01:14:06;;;;;;;;;;;17.30;99.90;;;;;;5037872;28;19909;-76
2022/12/26 01:16:32;;;;;;;;;;;17.30;99.90;;;;;;5040358;28;19913;-76
2022/12/26 01:18:57;;;;;;;;;;;17.30;99.90;;;;;;5048016;28;19939;-75
2022/12/26 01:21:23;;;;;;;;;;;17.30;99.90;;;;;;5047415;28;20337;-76
2022/12/26 01:23:48;;;;;;;;;;;17.30;99.90;;;;;;5040194;28;19921;-77
2022/12/26 01:26:14;;;;;;;;;;;17.30;99.90;;;;;;5055659;28;19998;-76
2022/12/26 01:28:39;;;;;;;;;;;17.50;99.90;;;;;;5040742;28;19917;-77
2022/12/26 01:31:05;;;;;;;;;;;17.40;99.90;;;;;;5031629;28;20425;-77
2022/12/26 01:33:31;;;;;;;;;;;17.50;99.90;;;;;;5035619;28;19917;-77
2022/12/26 01:35:56;;;;;;;;;;;17.50;99.90;;;;;;5030796;28;19940;-76
2022/12/26 01:38:22;;;;;;;;;;;17.70;99.90;;;;;;5038539;28;19912;-77
2022/12/26 01:41:15;;;;;;;;;;;17.60;99.90;;;;;;5042431;28;19920;-76
2022/12/26 01:43:52;;;;;;;;;;;17.60;99.90;;;;;;5037159;28;19913;-76
2022/12/26 01:46:19;;;;;;;;;;;17.50;99.90;;;;;;5048514;28;19913;-77
2022/12/26 01:48:45;;;;;;;;;;;17.60;99.90;;;;;;5061050;28;19920;-75
2022/12/26 01:51:12;;;;;;;;;;;17.70;99.90;;;;;;5070557;28;19904;-77
2022/12/26 01:53:40;;;;;;;;;;;17.60;99.90;;;;;;5062835;28;19915;-77
2022/12/26 01:56:11;;;;;;;;;;;17.60;99.90;;;;;;5067912;28;19912;-76
2022/12/26 01:58:38;;;;;;;;;;;17.50;99.90;;;;;;5060209;28;19948;-76
2022/12/26 02:01:06;;;;;;;;;;;17.70;99.90;;;;;;5070612;28;19927;-76
2022/12/26 02:06:17;;;;;;;;;;;17.50;99.90;;;;;;5068240;28;19907;-77
2022/12/26 02:08:42;;;;;;;;;;;17.30;99.90;;;;;;5059373;28;19917;-75
2022/12/26 02:11:12;;;;;;;;;;;17.30;99.90;;;;;;5066435;28;19922;-77
2022/12/26 02:13:38;;;;;;;;;;;17.40;99.90;;;;;;5054182;28;19944;-77
2022/12/26 02:16:04;;;;;;;;;;;17.30;99.90;;;;;;5066699;28;20102;-75
2022/12/26 02:18:29;;;;;;;;;;;17.30;99.90;;;;;;5056388;28;19924;-76
2022/12/26 02:21:00;;;;;;;;;;;17.30;99.90;;;;;;5062720;28;19964;-77
2022/12/26 02:23:26;;;;;;;;;;;17.10;99.90;;;;;;5068433;28;19932;-76
2022/12/26 02:26:10;;;;;;;;;;;17.20;99.90;;;;;;5056673;28;19909;-76
2022/12/26 02:28:38;;;;;;;;;;;17.00;99.90;;;;;;5060663;28;19956;-75
2022/12/26 02:31:30;;;;;;;;;;;17.30;99.90;;;;;;5057121;28;19913;-75
2022/12/26 02:34:14;;;;;;;;;;;17.10;99.90;;;;;;5050957;28;19924;-75
2022/12/26 02:36:40;;;;;;;;;;;17.20;99.90;;;;;;5040238;28;19909;-76
2022/12/26 02:39:20;;;;;;;;;;;17.30;99.90;;;;;;5040874;28;19909;-76
2022/12/26 02:42:01;;;;;;;;;;;17.30;99.90;;;;;;5052569;28;19917;-75
2022/12/26 02:47:46;;;;;;;;;;;17.20;99.90;;;;;;5043390;28;19920;-75
2022/12/26 03:17:18;;;;;;;;;;;17.20;99.90;;;;;;5039867;28;19915;-71
2022/12/26 03:18:19;;;;;;;;;;;17.10;99.90;;;;;;5040512;28;19916;-74
2022/12/26 03:20:45;;;;;;;;;;;17.10;99.90;;;;;;5040896;28;19913;-72
2022/12/26 03:23:13;;;;;;;;;;;17.10;99.90;;;;;;5033635;28;19920;-73
2022/12/26 03:28:25;;;;;;;;;;;17.20;99.90;;;;;;5040198;28;19917;-72
2022/12/26 03:30:51;;;;;;;;;;;17.10;99.90;;;;;;5039357;28;19913;-73
2022/12/26 03:36:04;;;;;;;;;;;17.00;99.90;;;;;;5038476;28;19919;-73
2022/12/26 03:38:50;;;;;;;;;;;17.00;99.90;;;;;;5036747;28;19912;-72
2022/12/26 04:44:06;;;;;;;;;;;15.90;99.90;;;;;;5035973;28;20342;-73
2022/12/26 04:46:33;;;;;;;;;;;15.80;99.90;;;;;;5044961;28;19951;-72
2022/12/26 04:51:45;;;;;;;;;;;15.70;99.90;;;;;;5036028;28;20401;-73
2022/12/26 04:54:11;;;;;;;;;;;15.70;99.90;;;;;;5030023;28;20000;-73
2022/12/26 04:56:36;;;;;;;;;;;15.70;99.90;;;;;;5030931;28;19950;-72
2022/12/26 04:59:02;;;;;;;;;;;15.60;99.90;;;;;;5036684;28;19920;-73
2022/12/26 05:09:41;;;;;;;;;;;15.50;99.90;;;;;;5041530;28;19966;-73
2022/12/26 05:12:07;;;;;;;;;;;15.40;99.90;;;;;;5037486;28;19913;-72
2022/12/26 05:14:34;;;;;;;;;;;15.30;99.90;;;;;;5037356;28;19909;-71
2022/12/26 05:30:55;;;;;;;;;;;14.90;99.90;;;;;;5043339;28;19951;-73
2022/12/26 05:36:05;;;;;;;;;;;14.90;99.90;;;;;;5031510;28;19967;-72
2022/12/26 05:38:30;;;;;;;;;;;14.90;99.90;;;;;;5035194;28;19913;-72
2022/12/26 05:40:56;;;;;;;;;;;14.90;99.90;;;;;;5043334;28;19917;-72
2022/12/26 05:43:21;;;;;;;;;;;14.80;99.90;;;;;;5035891;28;19920;-74
2022/12/26 05:45:47;;;;;;;;;;;14.80;99.90;;;;;;5036179;28;19920;-76
2022/12/26 05:48:12;;;;;;;;;;;14.70;99.90;;;;;;5043077;28;19999;-73
2022/12/26 05:50:37;;;;;;;;;;;14.80;99.90;;;;;;5035685;28;20511;-73
2022/12/26 05:53:03;;;;;;;;;;;14.80;99.90;;;;;;5035886;28;20382;-75
2022/12/26 05:55:29;;;;;;;;;;;14.80;99.90;;;;;;5033295;28;19927;-74
2022/12/26 05:57:55;;;;;;;;;;;14.70;99.90;;;;;;5034829;28;19909;-75
2022/12/26 06:00:21;;;;;;;;;;;14.70;99.90;;;;;;5040171;28;19982;-72
2022/12/26 06:02:47;;;;;;;;;;;14.70;99.90;;;;;;5040977;28;20341;-73
2022/12/26 06:05:12;;;;;;;;;;;14.60;99.90;;;;;;5032178;28;19913;-74
2022/12/26 06:07:38;;;;;;;;;;;14.60;99.90;;;;;;5034247;28;19913;-73
2022/12/26 06:10:05;;;;;;;;;;;14.50;99.90;;;;;;5041141;28;19973;-72
2022/12/26 06:12:30;;;;;;;;;;;14.50;99.90;;;;;;5037924;28;20290;-73
2022/12/26 06:14:56;;;;;;;;;;;14.40;99.90;;;;;;5044776;28;19992;-73
2022/12/26 06:17:21;;;;;;;;;;;14.40;99.90;;;;;;5042419;28;19995;-74
2022/12/26 06:19:47;;;;;;;;;;;14.30;99.90;;;;;;5039424;28;19924;-73
2022/12/26 06:22:12;;;;;;;;;;;14.30;99.90;;;;;;5042388;28;19916;-73
2022/12/26 06:24:38;;;;;;;;;;;14.30;99.90;;;;;;5042393;28;20508;-74
2022/12/26 06:27:03;;;;;;;;;;;14.20;99.90;;;;;;5040481;28;19921;-74
2022/12/26 06:29:29;;;;;;;;;;;14.10;99.90;;;;;;5042446;28;19917;-72
2022/12/26 06:31:54;;;;;;;;;;;14.20;99.90;;;;;;5041483;28;20483;-73
2022/12/26 06:34:20;;;;;;;;;;;14.10;99.90;;;;;;5042479;28;19913;-74
2022/12/26 06:36:45;;;;;;;;;;;14.10;99.90;;;;;;5041518;28;19908;-72
2022/12/26 06:39:10;;;;;;;;;;;14.10;99.90;;;;;;5041212;28;19916;-72
2022/12/26 06:41:36;;;;;;;;;;;13.90;99.90;;;;;;5043912;28;19924;-74
2022/12/26 06:44:01;;;;;;;;;;;13.90;99.90;;;;;;5040297;28;19946;-75
2022/12/26 06:46:27;;;;;;;;;;;13.80;99.90;;;;;;5040412;28;19912;-74
2022/12/26 06:48:52;;;;;;;;;;;13.70;99.90;;;;;;5039661;28;20382;-74
2022/12/26 06:51:22;;;;;;;;;;;13.70;99.90;;;;;;5043961;28;19920;-73
2022/12/26 06:53:48;;;;;;;;;;;13.60;99.90;;;;;;5038131;28;20050;-74
2022/12/26 06:56:15;;;;;;;;;;;13.60;99.90;;;;;;5042782;28;19916;-75
2022/12/26 06:58:41;;;;;;;;;;;13.50;99.90;;;;;;5037597;28;19944;-74
2022/12/26 07:01:13;;;;;;;;;;;13.40;99.90;;;;;;5042324;28;20305;-73
2022/12/26 07:03:39;;;;;;;;;;;13.40;99.90;;;;;;5040019;28;19924;-74
2022/12/26 07:06:15;;;;;;;;;;;13.40;99.90;;;;;;5039733;28;20672;-75
2022/12/26 07:08:41;;;;;;;;;;;13.30;99.90;;;;;;5042417;28;20615;-74
2022/12/26 07:11:11;;;;;;;;;;;13.30;99.90;;;;;;5045637;28;19909;-74
2022/12/26 07:13:37;;;;;;;;;;;13.30;99.90;;;;;;5041339;28;19979;-72
2022/12/26 07:16:02;;;;;;;;;;;13.30;99.90;;;;;;5042877;28;19913;-73
2022/12/26 07:18:28;;;;;;;;;;;13.20;99.90;;;;;;5044169;28;19908;-73
2022/12/26 07:20:53;;;;;;;;;;;13.20;99.90;;;;;;5042301;28;20540;-74
2022/12/26 07:23:19;;;;;;;;;;;13.20;99.90;;;;;;5039817;28;19921;-75
2022/12/26 07:25:46;;;;;;;;;;;13.10;99.90;;;;;;5043875;28;20380;-73
2022/12/26 07:28:11;;;;;;;;;;;13.10;99.90;;;;;;5037832;28;19925;-73
2022/12/26 07:30:36;;;;;;;;;;;13.00;99.90;;;;;;5046745;28;19967;-75
2022/12/26 07:33:02;;;;;;;;;;;13.00;99.90;;;;;;5041731;28;19909;-73
2022/12/26 07:35:27;;;;;;;;;;;12.90;99.90;;;;;;5043762;28;19919;-74
2022/12/26 07:37:53;;;;;;;;;;;12.80;99.90;;;;;;5040984;28;19939;-74
2022/12/26 07:40:18;;;;;;;;;;;12.80;99.90;;;;;;5042825;28;19920;-74
2022/12/26 07:42:44;;;;;;;;;;;12.60;99.90;;;;;;5039307;28;19921;-73
2022/12/26 07:45:09;;;;;;;;;;;12.60;99.90;;;;;;5044029;28;20473;-72
2022/12/26 07:47:35;;;;;;;;;;;12.50;99.90;;;;;;5041801;28;19955;-73
2022/12/26 07:50:00;;;;;;;;;;;12.50;99.90;;;;;;5042400;28;20430;-73
2022/12/26 07:52:26;;;;;;;;;;;12.40;99.90;;;;;;5043222;28;20475;-74
2022/12/26 07:54:51;;;;;;;;;;;12.40;99.90;;;;;;5039194;28;19909;-74
2022/12/26 07:57:17;;;;;;;;;;;12.40;99.90;;;;;;5042910;28;20031;-76
2022/12/26 07:59:42;;;;;;;;;;;12.40;99.90;;;;;;5043125;28;19952;-73
2022/12/26 08:02:09;;;;;;;;;;;12.50;99.90;;;;;;5038818;28;19908;-73
2022/12/26 08:04:34;;;;;;;;;;;12.40;99.90;;;;;;5041172;28;19924;-74
2022/12/26 08:07:00;;;;;;;;;;;12.40;99.90;;;;;;5038904;28;19963;-74
2022/12/26 08:09:25;;;;;;;;;;;12.50;99.90;;;;;;5040342;28;20011;-74
2022/12/26 08:11:51;;;;;;;;;;;12.50;99.90;;;;;;5040818;28;19913;-74
2022/12/26 08:14:16;;;;;;;;;;;12.50;99.90;;;;;;5038665;28;19955;-74
2022/12/26 08:16:42;;;;;;;;;;;12.50;99.90;;;;;;5042126;28;19913;-74
2022/12/26 08:19:08;;;;;;;;;;;12.50;99.90;;;;;;5040848;28;19913;-76
2022/12/26 08:21:34;;;;;;;;;;;12.50;99.90;;;;;;5051420;28;19913;-75
2022/12/26 08:24:00;;;;;;;;;;;12.50;99.90;;;;;;5053564;28;19915;-73
2022/12/26 08:26:26;;;;;;;;;;;12.50;99.90;;;;;;5051222;28;19909;-73
2022/12/26 08:28:51;;;;;;;;;;;12.40;99.90;;;;;;5045604;28;19971;-73
2022/12/26 08:31:18;;;;;;;;;;;12.40;99.90;;;;;;5037170;28;19959;-74
2022/12/26 08:33:43;;;;;;;;;;;12.40;99.90;;;;;;5033141;28;19919;-75
2022/12/26 08:36:11;;;;;;;;;;;12.30;99.90;;;;;;5040098;28;20552;-74
2022/12/26 08:38:37;;;;;;;;;;;12.20;99.90;;;;;;5038520;28;19917;-75
2022/12/26 08:41:03;;;;;;;;;;;12.20;99.90;;;;;;5042421;28;20477;-74
2022/12/26 08:43:28;;;;;;;;;;;12.10;99.90;;;;;;5042992;28;19944;-76
2022/12/26 08:46:02;;;;;;;;;;;12.10;99.90;;;;;;5044385;28;19909;-75
2022/12/26 08:48:28;;;;;;;;;;;12.00;99.90;;;;;;5046164;28;20004;-75
2022/12/26 08:50:54;;;;;;;;;;;12.00;99.90;;;;;;5040772;28;20526;-75
2022/12/26 08:53:20;;;;;;;;;;;12.00;99.90;;;;;;5032966;28;19921;-76
2022/12/26 08:55:45;;;;;;;;;;;11.90;99.90;;;;;;5045468;28;19955;-75
2022/12/26 08:58:11;;;;;;;;;;;11.90;99.90;;;;;;5042150;28;20376;-76
2022/12/26 09:00:36;;;;;;;;;;;11.90;99.90;;;;;;5038974;28;19921;-75
2022/12/26 09:03:01;;;;;;;;;;;11.90;99.90;;;;;;5028861;28;20582;-76
2022/12/26 09:05:27;;;;;;;;;;;11.80;99.90;;;;;;5041797;28;19917;-76
2022/12/26 09:07:52;;;;;;;;;;;11.90;99.90;;;;;;5033176;28;19913;-77
2022/12/26 09:10:18;;;;;;;;;;;11.90;99.90;;;;;;5037465;28;19913;-75
2022/12/26 09:12:43;;;;;;;;;;;11.90;99.90;;;;;;5041718;28;19912;-76
2022/12/26 09:15:09;;;;;;;;;;;12.00;99.90;;;;;;5039687;28;20529;-77
2022/12/26 09:17:34;;;;;;;;;;;12.00;99.90;;;;;;5046882;28;19917;-77
2022/12/26 09:20:00;;;;;;;;;;;12.00;99.90;;;;;;5040343;28;19924;-76
2022/12/26 09:25:09;;;;;;;;;;;12.10;99.90;;;;;;5040175;28;19995;-75
2022/12/26 09:27:35;;;;;;;;;;;12.20;99.90;;;;;;5042265;28;20003;-76
2022/12/26 09:30:00;;;;;;;;;;;12.20;99.90;;;;;;5039106;28;19939;-76
2022/12/26 09:32:26;;;;;;;;;;;12.40;99.90;;;;;;5060152;28;20379;-76
2022/12/26 09:34:51;;;;;;;;;;;12.40;99.90;;;;;;5038724;28;20031;-77
2022/12/26 09:37:17;;;;;;;;;;;12.50;99.90;;;;;;5039836;28;19979;-76
2022/12/26 09:39:42;;;;;;;;;;;12.50;99.90;;;;;;5040335;28;19919;-77
2022/12/26 09:42:21;;;;;;;;;;;12.50;99.90;;;;;;5047485;28;19908;-76
2022/12/26 09:45:07;;;;;;;;;;;12.50;99.90;;;;;;5048485;28;19923;-77
2022/12/26 09:47:58;;;;;;;;;;;12.60;99.90;;;;;;5043510;28;19920;-73
2022/12/26 09:50:30;;;;;;;;;;;12.50;99.90;;;;;;5046606;28;19982;-78
2022/12/26 09:52:58;;;;;;;;;;;12.50;99.90;;;;;;5042923;28;19917;-73
2022/12/26 09:55:26;;;;;;;;;;;12.30;99.90;;;;;;5046694;28;19913;-77
2022/12/26 09:57:54;;;;;;;;;;;11.80;99.90;;;;;;5045229;28;20011;-77
2022/12/26 10:00:21;;;;;;;;;;;11.40;99.90;;;;;;5046160;28;20020;-78
2022/12/26 10:02:55;;;;;;;;;;;10.80;99.90;;;;;;5044451;28;20287;-77
2022/12/26 10:05:22;;;;;;;;;;;10.10;99.90;;;;;;5047824;28;19916;-78
2022/12/26 10:07:52;;;;;;;;;;;9.80;99.90;;;;;;5044410;28;19940;-77
2022/12/26 10:10:23;;;;;;;;;;;9.60;99.90;;;;;;5045940;28;20420;-77
2022/12/26 10:12:55;;;;;;;;;;;9.30;99.90;;;;;;5046058;28;20420;-77
2022/12/26 10:15:30;;;;;;;;;;;9.10;99.90;;;;;;5046119;28;19970;-76
2022/12/26 10:17:58;;;;;;;;;;;9.00;99.90;;;;;;5045687;28;20007;-78
2022/12/26 10:20:53;;;;;;;;;;;8.90;99.90;;;;;;5047219;28;19912;-75
2022/12/26 10:23:28;;;;;;;;;;;8.80;99.90;;;;;;4982106;28;20044;-78
2022/12/26 10:25:56;;;;;;;;;;;8.70;99.90;;;;;;5048102;28;19913;-76
2022/12/26 10:28:30;;;;;;;;;;;8.60;99.90;;;;;;5046442;28;19912;-77
2022/12/26 10:30:57;;;;;;;;;;;8.60;99.90;;;;;;5046926;28;19909;-77
2022/12/26 10:33:35;;;;;;;;;;;8.60;99.90;;;;;;5046123;28;19913;-77
2022/12/26 10:36:01;;;;;;;;;;;8.50;99.90;;;;;;5039217;28;19917;-77
2022/12/26 10:38:29;;;;;;;;;;;8.50;99.90;;;;;;5046562;28;19915;-75
2022/12/26 10:40:57;;;;;;;;;;;8.40;99.90;;;;;;5047603;28;19913;-76
2022/12/26 10:43:29;;;;;;;;;;;8.30;99.90;;;;;;5046108;28;20004;-77
2022/12/26 10:45:55;;;;;;;;;;;8.30;99.90;;;;;;5048589;28;19917;-75
2022/12/26 10:48:22;;;;;;;;;;;8.40;99.90;;;;;;5048480;28;20000;-76
2022/12/26 10:50:48;;;;;;;;;;;8.30;99.90;;;;;;5047017;28;19991;-78
2022/12/26 10:53:14;;;;;;;;;;;8.30;99.90;;;;;;5043448;28;20522;-74
2022/12/26 10:55:40;;;;;;;;;;;8.20;99.90;;;;;;5043127;28;19920;-75
2022/12/26 10:58:21;;;;;;;;;;;8.20;99.90;;;;;;5045261;28;20008;-75
2022/12/26 11:00:46;;;;;;;;;;;8.10;99.90;;;;;;5044768;28;20036;-75
2022/12/26 11:03:13;;;;;;;;;;;8.10;99.90;;;;;;5053452;28;19924;-75
2022/12/26 11:05:41;;;;;;;;;;;8.00;99.90;;;;;;5044329;28;19916;-75
2022/12/26 11:08:21;;;;;;;;;;;8.00;99.90;;;;;;5048926;28;19913;-76
2022/12/26 11:11:07;;;;;;;;;;;8.00;99.90;;;;;;5037888;28;19917;-75
2022/12/26 11:13:40;;;;;;;;;;;8.00;99.90;;;;;;5045800;28;19963;-75
2022/12/26 11:16:07;;;;;;;;;;;8.00;99.90;;;;;;5049831;28;19967;-77
2022/12/26 11:18:37;;;;;;;;;;;8.00;99.90;;;;;;5041720;28;19909;-76
2022/12/26 11:21:18;;;;;;;;;;;7.90;99.90;;;;;;5047425;28;19917;-74
2022/12/26 11:24:03;;;;;;;;;;;7.90;99.90;;;;;;5043686;28;19962;-75
2022/12/26 11:26:28;;;;;;;;;;;7.90;99.90;;;;;;5042962;28;19944;-73
2022/12/26 11:29:27;;;;;;;;;;;7.70;99.90;;;;;;5047980;28;20275;-76
2022/12/26 11:31:52;;;;;;;;;;;7.60;99.90;;;;;;5003034;28;19917;-76
2022/12/26 11:34:26;;;;;;;;;;;7.60;99.90;;;;;;5042833;28;19943;-76
2022/12/26 11:36:52;;;;;;;;;;;7.70;99.90;;;;;;5051770;28;19913;-77
2022/12/26 11:39:17;;;;;;;;;;;7.60;99.90;;;;;;5043758;28;19913;-73
2022/12/26 11:41:45;;;;;;;;;;;7.70;99.90;;;;;;5039442;28;19917;-75
2022/12/26 11:44:13;;;;;;;;;;;7.80;99.90;;;;;;5047618;28;19917;-75
2022/12/26 11:46:40;;;;;;;;;;;7.90;99.90;;;;;;5043858;28;20585;-76
2022/12/26 11:49:09;;;;;;;;;;;7.90;99.90;;;;;;5042936;28;19909;-74
2022/12/26 11:51:39;;;;;;;;;;;7.90;99.90;;;;;;5047504;28;19909;-76
2022/12/26 11:54:16;;;;;;;;;;;8.00;99.90;;;;;;5040909;28;19942;-76
2022/12/26 11:56:42;;;;;;;;;;;8.20;99.90;;;;;;5047299;28;19920;-75
2022/12/26 11:59:17;;;;;;;;;;;8.10;99.90;;;;;;5042600;28;19912;-76
2022/12/26 12:01:43;;;;;;;;;;;8.00;99.90;;;;;;5039773;28;19927;-77
2022/12/26 12:04:08;;;;;;;;;;;8.10;99.90;;;;;;5045271;28;19917;-75
2022/12/26 12:06:39;;;;;;;;;;;7.90;99.90;;;;;;5048490;28;19916;-75
2022/12/26 12:09:17;;;;;;;;;;;7.80;99.90;;;;;;5045166;28;19913;-75
2022/12/26 12:12:01;;;;;;;;;;;7.70;99.90;;;;;;5046277;28;19920;-78
2022/12/26 12:14:29;;;;;;;;;;;7.60;99.90;;;;;;5049616;28;20551;-76
2022/12/26 12:17:02;;;;;;;;;;;7.70;99.90;;;;;;5053060;28;19909;-76
2022/12/26 12:19:36;;;;;;;;;;;7.70;99.90;;;;;;5044252;28;19913;-76
2022/12/26 12:22:16;;;;;;;;;;;7.90;99.90;;;;;;5043120;28;19948;-75
2022/12/26 12:24:59;;;;;;;;;;;7.80;99.90;;;;;;5053600;28;20345;-75
2022/12/26 12:27:48;;;;;;;;;;;7.90;99.90;;;;;;5054027;28;19924;-72
2022/12/26 12:30:13;;;;;;;;;;;8.10;99.90;;;;;;5043419;28;19920;-77
2022/12/26 12:32:42;;;;;;;;;;;8.00;99.90;;;;;;5051058;28;19935;-75
2022/12/26 12:35:21;;;;;;;;;;;7.90;99.90;;;;;;5051640;28;19916;-74
2022/12/26 12:37:59;;;;;;;;;;;8.00;99.90;;;;;;5035608;28;20330;-74
2022/12/26 12:40:32;;;;;;;;;;;7.90;99.90;;;;;;5042248;28;19948;-75
2022/12/26 12:43:01;;;;;;;;;;;8.00;99.90;;;;;;5043338;28;19909;-72
2022/12/26 12:45:35;;;;;;;;;;;8.00;99.90;;;;;;5047678;28;19917;-75
2022/12/26 12:48:15;;;;;;;;;;;7.90;99.90;;;;;;5049374;28;19948;-76
2022/12/26 12:50:40;;;;;;;;;;;7.80;99.90;;;;;;5054374;28;19921;-76
2022/12/26 12:53:09;;;;;;;;;;;7.60;99.90;;;;;;5054949;28;19970;-75
2022/12/26 12:55:54;;;;;;;;;;;7.40;99.90;;;;;;5045516;28;19913;-74
2022/12/26 12:58:39;;;;;;;;;;;7.30;99.90;;;;;;5044964;28;19912;-74
2022/12/26 13:01:08;;;;;;;;;;;7.30;99.90;;;;;;5058458;28;19912;-75
2022/12/26 13:03:54;;;;;;;;;;;7.30;99.90;;;;;;5042942;28;19917;-75
2022/12/26 13:06:40;;;;;;;;;;;7.30;99.90;;;;;;5035502;28;19916;-74
2022/12/26 13:09:20;;;;;;;;;;;7.10;99.90;;;;;;5046076;28;19916;-74
2022/12/26 13:11:47;;;;;;;;;;;7.00;99.90;;;;;;5054917;28;19913;-73
2022/12/26 13:14:16;;;;;;;;;;;7.10;99.90;;;;;;5050809;28;19912;-75
2022/12/26 13:16:44;;;;;;;;;;;7.10;99.90;;;;;;5053774;28;19939;-74
2022/12/26 13:19:25;;;;;;;;;;;7.10;99.90;;;;;;5053515;28;19913;-73
2022/12/26 13:21:52;;;;;;;;;;;7.10;99.90;;;;;;5054488;28;19925;-75
2022/12/26 13:24:31;;;;;;;;;;;7.20;99.90;;;;;;5050322;28;20678;-75
2022/12/26 13:27:19;;;;;;;;;;;7.20;99.90;;;;;;5048271;28;19999;-75
2022/12/26 13:29:46;;;;;;;;;;;7.20;99.90;;;;;;5044447;28;19912;-73
2022/12/26 13:32:14;;;;;;;;;;;7.20;99.90;;;;;;5051826;28;19919;-75
2022/12/26 13:34:42;;;;;;;;;;;7.30;99.90;;;;;;5049827;28;20007;-73
2022/12/26 13:37:27;;;;;;;;;;;7.30;99.90;;;;;;5049850;28;19913;-75
2022/12/26 13:39:52;;;;;;;;;;;7.30;99.90;;;;;;5047292;28;19917;-74
2022/12/26 13:45:24;;;;;;;;;;;7.40;99.90;;;;;;5042534;28;19981;-76
2022/12/26 13:47:50;;;;;;;;;;;7.50;99.90;;;;;;5037121;28;19923;-77
2022/12/26 13:50:34;;;;;;;;;;;7.60;99.90;;;;;;5041642;28;20007;-75
2022/12/26 13:52:59;;;;;;;;;;;7.60;99.90;;;;;;5038865;28;20282;-72
2022/12/26 13:55:29;;;;;;;;;;;7.50;99.90;;;;;;5040919;28;19913;-73
2022/12/26 13:58:18;;;;;;;;;;;7.50;99.90;;;;;;5041369;28;19921;-74
2022/12/26 14:00:45;;;;;;;;;;;7.30;99.90;;;;;;5038876;28;19970;-74
2022/12/26 14:03:14;;;;;;;;;;;7.30;99.90;;;;;;5039441;28;19963;-75
2022/12/26 14:05:58;;;;;;;;;;;7.30;99.90;;;;;;5040807;28;19913;-73
2022/12/26 14:08:36;;;;;;;;;;;7.30;99.90;;;;;;5042991;28;19913;-74
2022/12/26 14:11:28;;;;;;;;;;;7.20;99.90;;;;;;5038855;28;19917;-74
2022/12/26 14:13:53;;;;;;;;;;;7.10;99.90;;;;;;5040376;28;20007;-75
2022/12/26 14:16:24;;;;;;;;;;;6.90;99.90;;;;;;5044737;28;20025;-76
2022/12/26 14:19:02;;;;;;;;;;;6.90;99.90;;;;;;5050796;28;19963;-76
2022/12/26 14:21:31;;;;;;;;;;;6.90;99.90;;;;;;5023573;28;20555;-76
2022/12/26 14:23:57;;;;;;;;;;;6.80;99.90;;;;;;5050300;28;19917;-75
2022/12/26 14:26:41;;;;;;;;;;;6.80;99.90;;;;;;5050131;28;19908;-75
2022/12/26 14:29:25;;;;;;;;;;;6.80;99.90;;;;;;5044123;28;19921;-75
2022/12/26 14:31:57;;;;;;;;;;;6.80;99.90;;;;;;5052122;28;19920;-74
2022/12/26 14:34:33;;;;;;;;;;;6.80;99.90;;;;;;5048492;28;19958;-74
2022/12/26 14:36:58;;;;;;;;;;;6.70;99.90;;;;;;5047909;28;20008;-73
2022/12/26 14:39:29;;;;;;;;;;;6.80;99.90;;;;;;5049801;28;19951;-77
2022/12/26 14:44:58;;;;;;;;;;;6.80;99.90;;;;;;5049159;28;19927;-74
2022/12/26 14:47:42;;;;;;;;;;;6.80;99.90;;;;;;5045802;28;19923;-75
2022/12/26 14:50:26;;;;;;;;;;;6.70;99.90;;;;;;5042306;28;20004;-75
2022/12/26 14:52:52;;;;;;;;;;;6.80;99.90;;;;;;5046091;28;20023;-74
2022/12/26 14:55:39;;;;;;;;;;;6.70;99.90;;;;;;5050423;28;19916;-73
2022/12/26 14:58:22;;;;;;;;;;;6.70;99.90;;;;;;5051530;28;19913;-76
2022/12/26 15:00:48;;;;;;;;;;;6.70;99.90;;;;;;5052852;28;19929;-76
2022/12/26 15:03:32;;;;;;;;;;;6.60;99.90;;;;;;5047998;28;19974;-76
2022/12/26 15:06:12;;;;;;;;;;;6.70;99.90;;;;;;5050154;28;19913;-74
2022/12/26 15:08:40;;;;;;;;;;;6.60;99.90;;;;;;5044179;28;19943;-73
2022/12/26 15:11:25;;;;;;;;;;;6.70;99.90;;;;;;5048407;28;19944;-76
2022/12/26 15:13:56;;;;;;;;;;;6.70;99.90;;;;;;5050358;28;19996;-76
2022/12/26 15:16:28;;;;;;;;;;;6.70;99.90;;;;;;5048084;28;19923;-74
2022/12/26 15:19:04;;;;;;;;;;;6.70;99.90;;;;;;5044632;28;19917;-75
2022/12/26 15:21:48;;;;;;;;;;;6.70;99.90;;;;;;5045266;28;20608;-73
2022/12/26 15:24:49;;;;;;;;;;;6.80;99.90;;;;;;5045915;28;19920;-74
2022/12/26 15:27:34;;;;;;;;;;;6.70;99.90;;;;;;5042687;28;19917;-73
2022/12/26 15:30:20;;;;;;;;;;;6.70;99.90;;;;;;5027214;28;19921;-73
2022/12/26 15:32:52;;;;;;;;;;;6.60;99.90;;;;;;5048049;28;20574;-74
2022/12/26 15:35:20;;;;;;;;;;;6.60;99.90;;;;;;5046518;28;19913;-75
2022/12/26 15:38:00;;;;;;;;;;;6.60;99.90;;;;;;5040901;28;20031;-77
2022/12/26 15:40:36;;;;;;;;;;;6.60;99.90;;;;;;5042567;28;20008;-74
2022/12/26 15:43:21;;;;;;;;;;;6.60;99.90;;;;;;5041591;28;19919;-76
2022/12/26 15:45:47;;;;;;;;;;;6.50;99.90;;;;;;5043979;28;19920;-75
2022/12/26 15:48:12;;;;;;;;;;;6.40;99.90;;;;;;5036021;28;19927;-76
2022/12/26 15:50:43;;;;;;;;;;;6.50;99.90;;;;;;5044787;28;19920;-75
2022/12/26 15:53:15;;;;;;;;;;;6.50;99.90;;;;;;5045035;28;19909;-75
2022/12/26 15:55:49;;;;;;;;;;;6.40;99.90;;;;;;5041043;28;19948;-75
2022/12/26 15:58:27;;;;;;;;;;;6.30;99.90;;;;;;5041924;28;19986;-73
2022/12/26 16:00:53;;;;;;;;;;;6.20;99.90;;;;;;5036990;28;20494;-75
2022/12/26 16:03:35;;;;;;;;;;;6.20;99.90;;;;;;5040344;28;20421;-76
2022/12/26 16:06:17;;;;;;;;;;;6.30;99.90;;;;;;5044074;28;19917;-75
2022/12/26 16:08:42;;;;;;;;;;;6.20;99.90;;;;;;5038550;28;19913;-72
2022/12/26 16:11:08;;;;;;;;;;;6.20;99.90;;;;;;5048910;28;20397;-74
2022/12/26 16:13:34;;;;;;;;;;;6.20;99.90;;;;;;5039429;28;19968;-76
2022/12/26 16:15:59;;;;;;;;;;;6.20;99.90;;;;;;5045817;28;19944;-73
2022/12/26 16:18:26;;;;;;;;;;;6.20;99.90;;;;;;5041805;28;19923;-76
2022/12/26 16:23:39;;;;;;;;;;;6.20;99.90;;;;;;5036640;28;20451;-75
2022/12/26 16:26:04;;;;;;;;;;;6.10;99.90;;;;;;5040219;28;20349;-74
2022/12/26 16:28:29;;;;;;;;;;;6.10;99.90;;;;;;5046196;28;19909;-75
2022/12/26 16:30:56;;;;;;;;;;;6.20;99.90;;;;;;5035186;28;19920;-75
2022/12/26 16:33:21;;;;;;;;;;;6.20;99.90;;;;;;5033895;28;19981;-76
2022/12/26 16:35:46;;;;;;;;;;;6.10;99.90;;;;;;5042766;28;20616;-76
2022/12/26 16:38:14;;;;;;;;;;;6.10;99.90;;;;;;5045118;28;19916;-75
2022/12/26 16:40:44;;;;;;;;;;;6.10;99.90;;;;;;5034018;28;20086;-74
2022/12/26 16:43:12;;;;;;;;;;;5.90;99.90;;;;;;5044130;28;19916;-72
2022/12/26 16:45:38;;;;;;;;;;;5.80;99.90;;;;;;5041866;28;20391;-77
2022/12/26 16:48:06;;;;;;;;;;;5.90;99.90;;;;;;5044164;28;19916;-76
2022/12/26 16:50:32;;;;;;;;;;;5.90;99.90;;;;;;5038406;28;20505;-73
2022/12/26 16:53:03;;;;;;;;;;;5.90;99.90;;;;;;5041107;28;19948;-75
2022/12/26 16:55:43;;;;;;;;;;;5.90;99.90;;;;;;5036952;28;19920;-76
2022/12/26 16:58:22;;;;;;;;;;;5.90;99.90;;;;;;5039301;28;19921;-75